RPB6373 SKRG-SKBO
Flight info
| Callsign | RPB6373 |
|---|---|
| Flight time | 0h 28m |
| Altitude | 25000 |
| Route | ISVAT2B ISVAT ISVAT5E |
| Aircraft | B738/M-SDE2E3FGHIRWXY/LB1 |
Departure
| Time | 2026-05-09 03:44 |
|---|---|
| Airport | Jose Maria Córdova International Airport (SKRG) |
Arrival
| Time | 2026-05-09 04:13 |
|---|---|
| Airport | El Dorado International Airport (SKBO) |
| Time | Latitude | Longitude | Altitude | Speed | Heading |
|---|---|---|---|---|---|
| 2026-05-09 03:10 | 6.16977 | -75.42766 | 7017 ft | 0 kts | 330° |
| 2026-05-09 03:31 | 6.16977 | -75.42765 | 7017 ft | 1 kts | 330° |
| 2026-05-09 03:31 | 6.16957 | -75.42752 | 7018 ft | 4 kts | 320° |
| 2026-05-09 03:31 | 6.16939 | -75.42738 | 7021 ft | 2 kts | 330° |
| 2026-05-09 03:32 | 6.16937 | -75.42750 | 7018 ft | 4 kts | 252° |
| 2026-05-09 03:32 | 6.16931 | -75.42759 | 7018 ft | 0 kts | 237° |
| 2026-05-09 03:36 | 6.16925 | -75.42752 | 7019 ft | 2 kts | 95° |
| 2026-05-09 03:36 | 6.16935 | -75.42736 | 7020 ft | 3 kts | 46° |
| 2026-05-09 03:37 | 6.16965 | -75.42706 | 7017 ft | 9 kts | 44° |
| 2026-05-09 03:37 | 6.17013 | -75.42669 | 7022 ft | 9 kts | 38° |
| 2026-05-09 03:37 | 6.17035 | -75.42608 | 7016 ft | 10 kts | 105° |
| 2026-05-09 03:37 | 6.16984 | -75.42560 | 7015 ft | 10 kts | 149° |
| 2026-05-09 03:38 | 6.16926 | -75.42525 | 7013 ft | 10 kts | 149° |
| 2026-05-09 03:38 | 6.16865 | -75.42492 | 7002 ft | 11 kts | 160° |
| 2026-05-09 03:38 | 6.16792 | -75.42485 | 7001 ft | 10 kts | 177° |
| 2026-05-09 03:38 | 6.16721 | -75.42483 | 6991 ft | 10 kts | 179° |
| 2026-05-09 03:39 | 6.16629 | -75.42481 | 6993 ft | 17 kts | 179° |
| 2026-05-09 03:39 | 6.16484 | -75.42480 | 6984 ft | 25 kts | 179° |
| 2026-05-09 03:39 | 6.16306 | -75.42479 | 6980 ft | 25 kts | 180° |
| 2026-05-09 03:39 | 6.16140 | -75.42478 | 6976 ft | 23 kts | 180° |
| 2026-05-09 03:40 | 6.15985 | -75.42477 | 6975 ft | 22 kts | 180° |
| 2026-05-09 03:40 | 6.15832 | -75.42476 | 6974 ft | 21 kts | 179° |
| 2026-05-09 03:40 | 6.15686 | -75.42474 | 6974 ft | 21 kts | 180° |
| 2026-05-09 03:40 | 6.15544 | -75.42473 | 6975 ft | 20 kts | 180° |
| 2026-05-09 03:41 | 6.15453 | -75.42473 | 6975 ft | 19 kts | 180° |
| 2026-05-09 03:41 | 6.15278 | -75.42472 | 6976 ft | 18 kts | 180° |
| 2026-05-09 03:41 | 6.15153 | -75.42472 | 6976 ft | 18 kts | 179° |
| 2026-05-09 03:41 | 6.15033 | -75.42472 | 6977 ft | 17 kts | 180° |
| 2026-05-09 03:42 | 6.14942 | -75.42471 | 6976 ft | 12 kts | 178° |
| 2026-05-09 03:42 | 6.14896 | -75.42448 | 6975 ft | 11 kts | 125° |
| 2026-05-09 03:42 | 6.14889 | -75.42370 | 6974 ft | 11 kts | 85° |
| 2026-05-09 03:42 | 6.14937 | -75.42312 | 6976 ft | 11 kts | 37° |
| 2026-05-09 03:43 | 6.14977 | -75.42299 | 6977 ft | 2 kts | 1° |
| 2026-05-09 03:43 | 6.14996 | -75.42306 | 6977 ft | 0 kts | 323° |
| 2026-05-09 03:43 | 6.14999 | -75.42307 | 6977 ft | 4 kts | 335° |
| 2026-05-09 03:44 | 6.15162 | -75.42302 | 6979 ft | 57 kts | 1° |
| 2026-05-09 03:44 | 6.15823 | -75.42304 | 6978 ft | 131 kts | 360° |
| 2026-05-09 03:44 | 6.16942 | -75.42291 | 7128 ft | 181 kts | 2° |
| 2026-05-09 03:44 | 6.18242 | -75.42236 | 7904 ft | 200 kts | 4° |
| 2026-05-09 03:45 | 6.19628 | -75.42227 | 8818 ft | 196 kts | 1° |
| 2026-05-09 03:45 | 6.21044 | -75.42217 | 9532 ft | 211 kts | 9° |
| 2026-05-09 03:45 | 6.22335 | -75.41559 | 10219 ft | 213 kts | 52° |
| 2026-05-09 03:45 | 6.22880 | -75.40204 | 10926 ft | 213 kts | 89° |
| 2026-05-09 03:46 | 6.22503 | -75.38780 | 11626 ft | 216 kts | 121° |
| 2026-05-09 03:46 | 6.21606 | -75.37559 | 12353 ft | 219 kts | 127° |
| 2026-05-09 03:46 | 6.20664 | -75.36340 | 13059 ft | 222 kts | 127° |
| 2026-05-09 03:46 | 6.19713 | -75.35104 | 13788 ft | 225 kts | 126° |
| 2026-05-09 03:47 | 6.18755 | -75.33849 | 14442 ft | 228 kts | 126° |
| 2026-05-09 03:47 | 6.17786 | -75.32575 | 15015 ft | 232 kts | 127° |
| 2026-05-09 03:47 | 6.16578 | -75.31442 | 15317 ft | 251 kts | 153° |
| 2026-05-09 03:47 | 6.14813 | -75.31106 | 15498 ft | 274 kts | 178° |
| 2026-05-09 03:48 | 6.12881 | -75.30732 | 15703 ft | 291 kts | 157° |
| 2026-05-09 03:48 | 6.11007 | -75.29890 | 16155 ft | 299 kts | 155° |
| 2026-05-09 03:48 | 6.09112 | -75.29029 | 16687 ft | 305 kts | 155° |
| 2026-05-09 03:48 | 6.07109 | -75.28140 | 16985 ft | 327 kts | 156° |
| 2026-05-09 03:49 | 6.04934 | -75.27196 | 17159 ft | 353 kts | 157° |
| 2026-05-09 03:49 | 6.02588 | -75.26199 | 17357 ft | 377 kts | 157° |
| 2026-05-09 03:49 | 6.00118 | -75.25163 | 17851 ft | 389 kts | 158° |
| 2026-05-09 03:49 | 5.97603 | -75.24117 | 18573 ft | 393 kts | 158° |
| 2026-05-09 03:50 | 5.95071 | -75.23068 | 19286 ft | 395 kts | 158° |
| 2026-05-09 03:50 | 5.92517 | -75.22013 | 19975 ft | 397 kts | 158° |
| 2026-05-09 03:50 | 5.89987 | -75.20969 | 20618 ft | 399 kts | 158° |
| 2026-05-09 03:50 | 5.87400 | -75.19901 | 21276 ft | 402 kts | 158° |
| 2026-05-09 03:51 | 5.84808 | -75.18831 | 22077 ft | 400 kts | 158° |
| 2026-05-09 03:51 | 5.82239 | -75.17771 | 22921 ft | 397 kts | 158° |
| 2026-05-09 03:51 | 5.79718 | -75.16730 | 23703 ft | 395 kts | 158° |
| 2026-05-09 03:51 | 5.77173 | -75.15679 | 24317 ft | 395 kts | 158° |
| 2026-05-09 03:52 | 5.74612 | -75.14622 | 24658 ft | 403 kts | 158° |
| 2026-05-09 03:52 | 5.71978 | -75.13535 | 24770 ft | 417 kts | 158° |
| 2026-05-09 03:52 | 5.69235 | -75.12404 | 24787 ft | 433 kts | 158° |
| 2026-05-09 03:52 | 5.66393 | -75.11232 | 24788 ft | 448 kts | 158° |
| 2026-05-09 03:53 | 5.63492 | -75.10037 | 24785 ft | 461 kts | 158° |
| 2026-05-09 03:53 | 5.60474 | -75.08794 | 24785 ft | 473 kts | 158° |
| 2026-05-09 03:53 | 5.57386 | -75.07521 | 24804 ft | 484 kts | 158° |
| 2026-05-09 03:53 | 5.54232 | -75.06221 | 24786 ft | 494 kts | 158° |
| 2026-05-09 03:54 | 5.51059 | -75.04913 | 24777 ft | 502 kts | 158° |
| 2026-05-09 03:54 | 5.47851 | -75.03591 | 24754 ft | 487 kts | 158° |
| 2026-05-09 03:54 | 5.44788 | -75.02328 | 24750 ft | 464 kts | 158° |
| 2026-05-09 03:54 | 5.41867 | -75.01124 | 24767 ft | 444 kts | 158° |
| 2026-05-09 03:55 | 5.39062 | -74.99968 | 24670 ft | 425 kts | 158° |
| 2026-05-09 03:55 | 5.36383 | -74.98855 | 24655 ft | 408 kts | 158° |
| 2026-05-09 03:55 | 5.33815 | -74.97767 | 24639 ft | 392 kts | 157° |
| 2026-05-09 03:55 | 5.31377 | -74.96728 | 24590 ft | 379 kts | 157° |
| 2026-05-09 03:56 | 5.28989 | -74.95711 | 24492 ft | 368 kts | 157° |
| 2026-05-09 03:56 | 5.26629 | -74.94709 | 24019 ft | 370 kts | 157° |
| 2026-05-09 03:56 | 5.24237 | -74.93696 | 23430 ft | 376 kts | 157° |
| 2026-05-09 03:56 | 5.21845 | -74.92615 | 22727 ft | 376 kts | 149° |
| 2026-05-09 03:57 | 5.19864 | -74.90927 | 22046 ft | 373 kts | 129° |
| 2026-05-09 03:57 | 5.18472 | -74.88748 | 21414 ft | 370 kts | 119° |
| 2026-05-09 03:57 | 5.17239 | -74.86496 | 20768 ft | 367 kts | 119° |
| 2026-05-09 03:57 | 5.16009 | -74.84262 | 20137 ft | 365 kts | 119° |
| 2026-05-09 03:58 | 5.14756 | -74.82049 | 19512 ft | 363 kts | 120° |
| 2026-05-09 03:58 | 5.13566 | -74.79830 | 18921 ft | 360 kts | 111° |
| 2026-05-09 03:58 | 5.13156 | -74.77366 | 18335 ft | 359 kts | 87° |
| 2026-05-09 03:58 | 5.13683 | -74.74967 | 17693 ft | 357 kts | 67° |
| 2026-05-09 03:59 | 5.14960 | -74.72845 | 17072 ft | 353 kts | 47° |
| 2026-05-09 03:59 | 5.16675 | -74.71151 | 16858 ft | 337 kts | 43° |
| 2026-05-09 03:59 | 5.18363 | -74.69605 | 16719 ft | 321 kts | 42° |
| 2026-05-09 03:59 | 5.19963 | -74.68133 | 16679 ft | 303 kts | 43° |
| 2026-05-09 04:00 | 5.21483 | -74.66714 | 16682 ft | 295 kts | 43° |
| 2026-05-09 04:00 | 5.22986 | -74.65297 | 16712 ft | 299 kts | 43° |
| 2026-05-09 04:00 | 5.24478 | -74.63867 | 16731 ft | 301 kts | 47° |
| 2026-05-09 04:00 | 5.25542 | -74.62089 | 16752 ft | 296 kts | 69° |
| 2026-05-09 04:01 | 5.26257 | -74.60154 | 16752 ft | 295 kts | 70° |
| 2026-05-09 04:01 | 5.26961 | -74.58219 | 16770 ft | 294 kts | 70° |
| 2026-05-09 04:01 | 5.27669 | -74.56287 | 16780 ft | 294 kts | 70° |
| 2026-05-09 04:01 | 5.28375 | -74.54380 | 16792 ft | 295 kts | 70° |
| 2026-05-09 04:02 | 5.29094 | -74.52452 | 16779 ft | 295 kts | 70° |
| 2026-05-09 04:02 | 5.29818 | -74.50520 | 16778 ft | 296 kts | 69° |
| 2026-05-09 04:02 | 5.30544 | -74.48584 | 16810 ft | 297 kts | 69° |
| 2026-05-09 04:02 | 5.31064 | -74.46581 | 16790 ft | 297 kts | 90° |
| 2026-05-09 04:03 | 5.30930 | -74.44513 | 16814 ft | 296 kts | 95° |
| 2026-05-09 04:03 | 5.30739 | -74.42471 | 16808 ft | 297 kts | 95° |
| 2026-05-09 04:03 | 5.30558 | -74.40402 | 16809 ft | 298 kts | 95° |
| 2026-05-09 04:03 | 5.30386 | -74.38320 | 16803 ft | 299 kts | 95° |
| 2026-05-09 04:04 | 5.30220 | -74.36241 | 16801 ft | 300 kts | 95° |
| 2026-05-09 04:04 | 5.29833 | -74.34190 | 16823 ft | 299 kts | 114° |
| 2026-05-09 04:04 | 5.28638 | -74.32538 | 16847 ft | 297 kts | 140° |
| 2026-05-09 04:04 | 5.26828 | -74.31547 | 16876 ft | 297 kts | 166° |
| 2026-05-09 04:05 | 5.24780 | -74.31382 | 16876 ft | 296 kts | 188° |
| 2026-05-09 04:05 | 5.22799 | -74.31853 | 16885 ft | 296 kts | 196° |
| 2026-05-09 04:05 | 5.20803 | -74.32471 | 16518 ft | 306 kts | 197° |
| 2026-05-09 04:05 | 5.18756 | -74.33129 | 16106 ft | 310 kts | 197° |
| 2026-05-09 04:06 | 5.16693 | -74.33785 | 15677 ft | 313 kts | 197° |
| 2026-05-09 04:06 | 5.14603 | -74.34440 | 15264 ft | 315 kts | 197° |
| 2026-05-09 04:06 | 5.12509 | -74.35088 | 14889 ft | 318 kts | 196° |
| 2026-05-09 04:06 | 5.10377 | -74.35743 | 14479 ft | 321 kts | 196° |
| 2026-05-09 04:07 | 5.08231 | -74.36398 | 14028 ft | 323 kts | 196° |
| 2026-05-09 04:07 | 5.06066 | -74.37058 | 13584 ft | 324 kts | 196° |
| 2026-05-09 04:07 | 5.03905 | -74.37717 | 13140 ft | 326 kts | 196° |
| 2026-05-09 04:07 | 5.01796 | -74.38360 | 13155 ft | 312 kts | 196° |
| 2026-05-09 04:08 | 4.99747 | -74.38986 | 13136 ft | 304 kts | 196° |
| 2026-05-09 04:08 | 4.97732 | -74.39600 | 13160 ft | 303 kts | 196° |
| 2026-05-09 04:08 | 4.95681 | -74.40224 | 13171 ft | 310 kts | 195° |
| 2026-05-09 04:08 | 4.93605 | -74.40735 | 13147 ft | 313 kts | 182° |
| 2026-05-09 04:09 | 4.91480 | -74.40420 | 13167 ft | 308 kts | 156° |
| 2026-05-09 04:09 | 4.89694 | -74.39276 | 13191 ft | 305 kts | 134° |
| 2026-05-09 04:09 | 4.88373 | -74.37622 | 13210 ft | 304 kts | 125° |
| 2026-05-09 04:09 | 4.87154 | -74.35880 | 13218 ft | 305 kts | 124° |
| 2026-05-09 04:10 | 4.85924 | -74.34124 | 13156 ft | 308 kts | 124° |
| 2026-05-09 04:10 | 4.84685 | -74.32378 | 13038 ft | 306 kts | 125° |
| 2026-05-09 04:10 | 4.83326 | -74.30726 | 12939 ft | 306 kts | 131° |
| 2026-05-09 04:10 | 4.81865 | -74.29145 | 12557 ft | 312 kts | 132° |
| 2026-05-09 04:11 | 4.80404 | -74.27573 | 12208 ft | 308 kts | 132° |
| 2026-05-09 04:11 | 4.78965 | -74.26018 | 11810 ft | 299 kts | 131° |
| 2026-05-09 04:11 | 4.77592 | -74.24507 | 11437 ft | 288 kts | 131° |
| 2026-05-09 04:11 | 4.76276 | -74.23051 | 11092 ft | 272 kts | 130° |
| 2026-05-09 04:12 | 4.75062 | -74.21698 | 10686 ft | 250 kts | 130° |
| 2026-05-09 04:12 | 4.73916 | -74.20477 | 10252 ft | 238 kts | 134° |
| 2026-05-09 04:12 | 4.72779 | -74.19278 | 9479 ft | 237 kts | 128° |
| 2026-05-09 04:12 | 4.71839 | -74.17965 | 8840 ft | 228 kts | 122° |
| 2026-05-09 04:13 | 4.70904 | -74.16719 | 8393 ft | 215 kts | 127° |
| 2026-05-09 04:13 | 4.70210 | -74.15797 | 8369 ft | 88 kts | 127° |
| 2026-05-09 04:13 | 4.70031 | -74.15563 | 8370 ft | 34 kts | 127° |
| 2026-05-09 04:13 | 4.69927 | -74.15427 | 8372 ft | 23 kts | 127° |
| 2026-05-09 04:14 | 4.69835 | -74.15302 | 8372 ft | 22 kts | 126° |
| 2026-05-09 04:14 | 4.69756 | -74.15172 | 8371 ft | 22 kts | 114° |
| 2026-05-09 04:14 | 4.69720 | -74.15028 | 8370 ft | 21 kts | 96° |
| 2026-05-09 04:14 | 4.69777 | -74.14905 | 8369 ft | 20 kts | 39° |
| 2026-05-09 04:15 | 4.69883 | -74.14816 | 8370 ft | 20 kts | 60° |
| 2026-05-09 04:15 | 4.69916 | -74.14693 | 8369 ft | 18 kts | 46° |
| 2026-05-09 04:15 | 4.70001 | -74.14614 | 8369 ft | 16 kts | 50° |
| 2026-05-09 04:15 | 4.70003 | -74.14516 | 8369 ft | 15 kts | 124° |
| 2026-05-09 04:16 | 4.69944 | -74.14484 | 8369 ft | 7 kts | 205° |
| 2026-05-09 04:16 | 4.69943 | -74.14485 | 8369 ft | 0 kts | 206° |
| 2026-05-09 04:17 | 4.69923 | -74.14495 | 8369 ft | 6 kts | 210° |
| 2026-05-09 04:17 | 4.69909 | -74.14504 | 8369 ft | 0 kts | 212° |